Capt. Kirk Colletti — WDF9430 — position and weather

sailwx.info

Track history (hours):
 
Tides and Currents Weather Stations Pressure Air Temp Water Temp Dewpoint Dewpoint Depression Visibility Wind Speed Wind Dir Waves Ship Positions

Capt. Kirk Colletti

Owner: Genesis Marine, LLC, Houston, TX. More information available from US FCC via Universal Licensing System and Coast Guard Vessel Documentation Center.

Last reported at 2018-Feb-16 06:25 UTC. Time now 2018-Feb-19 14:19 UTC.
Position N 28°40' W 096°00'.

Length 25 m; draft 3 m.

Type: Other ship. MMSI: 367505080.

Date/timePositionNaut miles runAvg speedWind from/ knotsBaromVisibWave heightAir tempDewpointWater temp
2018-Feb-16 06:25N 28°40' W 096°00'0 0.0
2018-Feb-16 05:58N 28°40' W 096°00'0 0.3
2018-Feb-16 05:27N 28°40' W 096°00'2 3.4
2018-Feb-16 04:45N 28°39' W 096°03'2 4.9
2018-Feb-16 04:23N 28°38' W 096°04'1 2.2
2018-Feb-16 03:59N 28°38' W 096°05'0 0.0
2018-Feb-16 03:23N 28°38' W 096°05'0 0.0
2018-Feb-16 02:59N 28°38' W 096°05'0 0.0
2018-Feb-16 02:30N 28°38' W 096°05'0 0.0
2018-Feb-16 01:53N 28°38' W 096°05'1 0.6
2018-Feb-16 00:53N 28°38' W 096°06'1 3.1
2018-Feb-16 00:30N 28°37' W 096°07'3 5.1
2018-Feb-15 23:59N 28°37' W 096°10'6 6.4
2018-Feb-15 23:05N 28°32' W 096°14'1 6.9
2018-Feb-15 23:01N 28°32' W 096°15'4 6.9
2018-Feb-15 22:22N 28°30' W 096°19'3 6.4
2018-Feb-15 21:56N 28°29' W 096°22'3 6.1
2018-Feb-15 21:29N 28°27' W 096°24'3 5.6
2018-Feb-15 21:00N 28°26' W 096°27'0 0.3
2018-Feb-15 20:10N 28°25' W 096°27'0 0.0
2018-Feb-15 19:59N 28°25' W 096°27'0 0.0
2018-Feb-15 19:26N 28°25' W 096°27'0 0.0
2018-Feb-15 18:58N 28°25' W 096°27'2 3.7
2018-Feb-15 18:23N 28°24' W 096°29'2 5.1
2018-Feb-15 18:00N 28°24' W 096°31'3 5.4
2018-Feb-15 17:30N 28°22' W 096°34'3 5.1
2018-Feb-15 16:53N 28°21' W 096°37'2 5.1
2018-Feb-15 16:30N 28°20' W 096°39'1 2.6
2018-Feb-15 16:00N 28°19' W 096°40'0 0.0
2018-Feb-15 15:30N 28°19' W 096°40'0 0.0
2018-Feb-15 14:41N 28°19' W 096°40'0 0.0
2018-Feb-15 14:27N 28°19' W 096°40'0 0.0
2018-Feb-15 13:55N 28°19' W 096°40'0 0.0
2018-Feb-15 13:30N 28°19' W 096°40'0 0.0
2018-Feb-15 12:59N 28°19' W 096°40'0 0.0
2018-Feb-15 12:30N 28°19' W 096°40'0 0.0
2018-Feb-15 12:00N 28°19' W 096°40'0 0.0
2018-Feb-15 11:26N 28°19' W 096°40'0 0.0
2018-Feb-15 10:47N 28°19' W 096°40'0 0.0
2018-Feb-15 10:30N 28°19' W 096°40'0 0.0
2018-Feb-15 09:42N 28°19' W 096°40'0 0.0
2018-Feb-15 09:23N 28°19' W 096°40'0 0.0
2018-Feb-15 08:59N 28°19' W 096°40'0 0.0
2018-Feb-15 08:28N 28°19' W 096°40'0 0.0
2018-Feb-15 07:58N 28°19' W 096°40'0 0.0
2018-Feb-15 07:29N 28°19' W 096°40'0 0.0
2018-Feb-15 06:59N 28°19' W 096°40'0 0.0
2018-Feb-15 06:21N 28°19' W 096°40'0 0.0
2018-Feb-15 05:59N 28°19' W 096°40'0 0.0
2018-Feb-15 05:30N 28°19' W 096°40'0 0.0
2018-Feb-15 05:00N 28°19' W 096°40'0 0.0
2018-Feb-15 00:56N 28°19' W 096°40'0 0.0
2018-Feb-15 00:16N 28°19' W 096°40'0 0.0
2018-Feb-14 23:56N 28°19' W 096°40'0 0.3
2018-Feb-14 22:34N 28°19' W 096°41'0 3.6
2018-Feb-14 22:26N 28°18' W 096°41'2 3.7
2018-Feb-14 21:59N 28°17' W 096°42'4 5.9
2018-Feb-14 21:17N 28°15' W 096°46'2 5.2
2018-Feb-14 20:56N 28°14' W 096°48'2 4.5
2018-Feb-14 20:25N 28°12' W 096°50'2 4.3
2018-Feb-14 19:59N 28°11' W 096°51'2 4.4
2018-Feb-14 19:29N 28°10' W 096°53'2 4.4
2018-Feb-14 18:59N 28°08' W 096°55'1 1.4
2018-Feb-14 18:29N 28°07' W 096°55'0 0.0
2018-Feb-14 17:59N 28°07' W 096°55'0 0.0
2018-Feb-14 17:30N 28°07' W 096°55'0 0.0
2018-Feb-14 16:59N 28°07' W 096°55'0 0.0
2018-Feb-14 16:29N 28°07' W 096°55'0 0.0
2018-Feb-14 15:59N 28°07' W 096°55'0 0.0
2018-Feb-14 15:30N 28°07' W 096°55'0 0.0
2018-Feb-14 15:00N 28°07' W 096°55'0 0.0
2018-Feb-14 14:30N 28°07' W 096°55'0 0.0
2018-Feb-14 14:00N 28°07' W 096°55'0 0.0
2018-Feb-14 13:31N 28°07' W 096°55'0 0.0
2018-Feb-14 13:00N 28°07' W 096°55'0 0.0
2018-Feb-14 11:20N 28°07' W 096°55'0 0.0
2018-Feb-14 10:58N 28°07' W 096°55'0 0.0
2018-Feb-14 10:29N 28°07' W 096°55'0 0.0
2018-Feb-14 10:00N 28°07' W 096°55'0 0.0
2018-Feb-14 09:30N 28°07' W 096°55'0 0.0
2018-Feb-14 08:59N 28°07' W 096°55'0 0.0
2018-Feb-14 08:30N 28°07' W 096°55'0 0.0
2018-Feb-14 08:00N 28°07' W 096°55'0 0.0
2018-Feb-14 07:29N 28°07' W 096°55'0 0.0
2018-Feb-14 06:59N 28°07' W 096°55'0 0.0
2018-Feb-14 06:30N 28°07' W 096°55'0 0.0
2018-Feb-14 06:00N 28°07' W 096°55'0 0.0
2018-Feb-14 05:30N 28°07' W 096°55'0 0.0
2018-Feb-14 04:59N 28°07' W 096°55'0 0.0
2018-Feb-14 04:29N 28°07' W 096°55'0 0.0
2018-Feb-14 04:00N 28°07' W 096°55'0 0.0
2018-Feb-14 03:30N 28°07' W 096°55'0 0.0
2018-Feb-14 02:59N 28°07' W 096°55'0 0.0
2018-Feb-14 02:30N 28°07' W 096°55'0 0.0
2018-Feb-14 01:59N 28°07' W 096°55'0 0.0
2018-Feb-14 01:29N 28°07' W 096°55'0 0.0
2018-Feb-14 01:00N 28°07' W 096°55'0 0.0
2018-Feb-14 00:30N 28°07' W 096°55'0 0.6
2018-Feb-14 00:00N 28°07' W 096°56'3 5.4
2018-Feb-13 23:29N 28°05' W 096°57'3 6.4
2018-Feb-13 22:59N 28°02' W 096°60'3 6.7
2018-Feb-13 22:30N 27°60' W 097°02'3 6.2
2018-Feb-13 21:58N 27°57' W 097°04'3 7.2
2018-Feb-13 21:29N 27°53' W 097°03'1 1.7
2018-Feb-13 21:00N 27°53' W 097°03'0 0.0
2018-Feb-13 20:30N 27°53' W 097°03'0 0.0
2018-Feb-13 19:59N 27°53' W 097°03'0 0.0
2018-Feb-13 19:30N 27°53' W 097°03'0 0.0
2018-Feb-13 19:00N 27°53' W 097°03'0 0.0
2018-Feb-13 18:29N 27°53' W 097°03'0 0.0
2018-Feb-13 17:59N 27°53' W 097°03'0 0.0
2018-Feb-13 17:29N 27°53' W 097°03'0 0.0
2018-Feb-13 17:00N 27°53' W 097°03'0 0.0
2018-Feb-13 16:30N 27°53' W 097°03'0 0.0
2018-Feb-13 15:59N 27°53' W 097°03'0 0.0
2018-Feb-13 15:29N 27°53' W 097°03'0 0.0
2018-Feb-13 14:59N 27°53' W 097°03'0 0.0
2018-Feb-13 14:29N 27°53' W 097°03'0 0.0
2018-Feb-13 14:00N 27°53' W 097°03'0 0.0
2018-Feb-13 13:30N 27°53' W 097°03'0 0.0
2018-Feb-13 13:00N 27°53' W 097°03'0 0.0
2018-Feb-13 12:29N 27°53' W 097°03'0 0.0
2018-Feb-13 11:59N 27°53' W 097°03'0 0.0
2018-Feb-13 11:30N 27°53' W 097°03'0 0.0
2018-Feb-13 11:00N 27°53' W 097°03'1 2.8
2018-Feb-13 10:30N 27°51' W 097°03'3 5.0
2018-Feb-13 09:59N 27°50' W 097°06'3 6.1
2018-Feb-13 09:29N 27°49' W 097°09'3 6.1
2018-Feb-13 09:00N 27°49' W 097°13'15 1.6
2018-Feb-12 23:17N 27°50' W 097°30'0 0.0
2018-Feb-12 22:52N 27°50' W 097°30'2 0.6
2018-Feb-12 18:50N 27°49' W 097°27'0 0.2
2018-Feb-12 17:17N 27°49' W 097°27'2 5.7
2018-Feb-12 16:51N 27°50' W 097°30'0 0.1
2018-Feb-12 16:30N 27°50' W 097°30'0 0.0
2018-Feb-12 15:34N 27°50' W 097°30'  
2018-Feb-08 16:00N 27°49' W 097°16'12 5.0
2018-Feb-08 13:30N 27°53' W 097°03'0 0.0
2018-Feb-08 10:00N 27°53' W 097°03'0 0.0
2018-Feb-08 04:00N 27°53' W 097°03'0 0.0
2018-Feb-08 01:29N 27°53' W 097°03'0 0.0
2018-Feb-08 01:00N 27°53' W 097°03'0 0.0
2018-Feb-08 00:30N 27°53' W 097°03'0 0.0
2018-Feb-08 00:00N 27°53' W 097°03'0 0.0
2018-Feb-07 23:28N 27°53' W 097°03'0 0.0
2018-Feb-07 22:59N 27°53' W 097°03'0 0.0
2018-Feb-07 22:29N 27°53' W 097°03'0 0.0
2018-Feb-07 22:00N 27°53' W 097°03'0 0.0
2018-Feb-07 21:29N 27°53' W 097°03'0 0.0
2018-Feb-07 09:29N 27°53' W 097°03'0 0.0
2018-Feb-07 08:36N 27°53' W 097°03'0 0.0
2018-Feb-07 08:29N 27°53' W 097°03'0 0.0
2018-Feb-07 08:00N 27°53' W 097°03'0 0.0
2018-Feb-07 07:30N 27°53' W 097°03'0 0.0
2018-Feb-07 07:00N 27°53' W 097°03'0 0.0
2018-Feb-07 06:28N 27°53' W 097°03'0 0.0
2018-Feb-07 05:41N 27°53' W 097°03'0 0.0
2018-Feb-07 05:27N 27°53' W 097°03'0 0.0
2018-Feb-07 04:58N 27°53' W 097°03'0 0.0
2018-Feb-07 04:24N 27°53' W 097°03'0 0.0
2018-Feb-07 03:59N 27°53' W 097°03'0 0.0
2018-Feb-07 03:08N 27°53' W 097°03'0 0.0
2018-Feb-07 02:47N 27°53' W 097°03'0 0.0
2018-Feb-07 02:30N 27°53' W 097°03'0 0.0
2018-Feb-07 01:44N 27°53' W 097°03'0 0.0
2018-Feb-07 01:22N 27°53' W 097°03'0 0.0
2018-Feb-07 00:53N 27°53' W 097°03'0 0.0
2018-Feb-07 00:10N 27°53' W 097°03'0 0.0
2018-Feb-06 23:57N 27°53' W 097°03'0 0.0
2018-Feb-06 23:24N 27°53' W 097°03'0 0.0
2018-Feb-06 22:52N 27°53' W 097°03'0 0.0
2018-Feb-06 22:19N 27°53' W 097°03'0 0.0
2018-Feb-06 21:58N 27°53' W 097°03'0 0.0
2018-Feb-06 21:10N 27°53' W 097°03'0 0.0
2018-Feb-06 20:59N 27°53' W 097°03'0 0.0
2018-Feb-06 20:29N 27°53' W 097°03'0 0.0
2018-Feb-06 20:00N 27°53' W 097°03'0 0.0
2018-Feb-06 19:21N 27°53' W 097°03'0 0.0
2018-Feb-06 18:27N 27°53' W 097°03'0 0.0
2018-Feb-06 17:59N 27°53' W 097°03'0 0.0
2018-Feb-06 17:30N 27°53' W 097°03'0 0.0
2018-Feb-06 17:00N 27°53' W 097°03'0 0.0
2018-Feb-06 16:28N 27°53' W 097°03'0 0.0
2018-Feb-06 15:50N 27°53' W 097°03'0 0.0
2018-Feb-06 15:30N 27°53' W 097°03'0 0.0
2018-Feb-06 14:59N 27°53' W 097°03'0 0.0
2018-Feb-06 14:30N 27°53' W 097°03'0 0.0
2018-Feb-06 14:00N 27°53' W 097°03'0 0.0
2018-Feb-06 13:27N 27°53' W 097°03'0 0.0
2018-Feb-06 12:58N 27°53' W 097°03'0 0.0
2018-Feb-06 12:30N 27°53' W 097°03'0 0.0
2018-Feb-06 12:00N 27°53' W 097°03'0 0.0
2018-Feb-06 11:25N 27°53' W 097°03'0 0.0
2018-Feb-06 10:59N 27°53' W 097°03'0 0.0
2018-Feb-06 10:29N 27°53' W 097°03'0 0.0
2018-Feb-06 10:00N 27°53' W 097°03'0 0.0
2018-Feb-06 09:29N 27°53' W 097°03'0 0.0
2018-Feb-06 08:57N 27°53' W 097°03'0 0.0
2018-Feb-06 08:29N 27°53' W 097°03'0 0.0
2018-Feb-06 07:30N 27°53' W 097°03'0 0.0
2018-Feb-06 07:00N 27°53' W 097°03'0 0.0
2018-Feb-06 06:29N 27°53' W 097°03'  
Track history (hours):
 
Tides and Currents Weather Stations Pressure Air Temp Water Temp Dewpoint Dewpoint Depression Visibility Wind Speed Wind Dir Waves Ship Positions

Capt. Kirk Colletti

Owner: Genesis Marine, LLC, Houston, TX. More information available from US FCC via Universal Licensing System and Coast Guard Vessel Documentation Center.

Last reported at 2018-Feb-16 06:25 UTC. Time now 2018-Feb-19 14:19 UTC.
Position N 28°40' W 096°00'.

Length 25 m; draft 3 m.

Type: Other ship. MMSI: 367505080.

Date/timePositionNaut miles runAvg speedWind from/ knotsBaromVisibWave heightAir tempDewpointWater temp
2018-Feb-16 06:25N 28°40' W 096°00'0 0.0
2018-Feb-16 05:58N 28°40' W 096°00'0 0.3
2018-Feb-16 05:27N 28°40' W 096°00'2 3.4
2018-Feb-16 04:45N 28°39' W 096°03'2 4.9
2018-Feb-16 04:23N 28°38' W 096°04'1 2.2
2018-Feb-16 03:59N 28°38' W 096°05'0 0.0
2018-Feb-16 03:23N 28°38' W 096°05'0 0.0
2018-Feb-16 02:59N 28°38' W 096°05'0 0.0
2018-Feb-16 02:30N 28°38' W 096°05'0 0.0
2018-Feb-16 01:53N 28°38' W 096°05'1 0.6
2018-Feb-16 00:53N 28°38' W 096°06'1 3.1
2018-Feb-16 00:30N 28°37' W 096°07'3 5.1
2018-Feb-15 23:59N 28°37' W 096°10'6 6.4
2018-Feb-15 23:05N 28°32' W 096°14'1 6.9
2018-Feb-15 23:01N 28°32' W 096°15'4 6.9
2018-Feb-15 22:22N 28°30' W 096°19'3 6.4
2018-Feb-15 21:56N 28°29' W 096°22'3 6.1
2018-Feb-15 21:29N 28°27' W 096°24'3 5.6
2018-Feb-15 21:00N 28°26' W 096°27'0 0.3
2018-Feb-15 20:10N 28°25' W 096°27'0 0.0
2018-Feb-15 19:59N 28°25' W 096°27'0 0.0
2018-Feb-15 19:26N 28°25' W 096°27'0 0.0
2018-Feb-15 18:58N 28°25' W 096°27'2 3.7
2018-Feb-15 18:23N 28°24' W 096°29'2 5.1
2018-Feb-15 18:00N 28°24' W 096°31'3 5.4
2018-Feb-15 17:30N 28°22' W 096°34'3 5.1
2018-Feb-15 16:53N 28°21' W 096°37'2 5.1
2018-Feb-15 16:30N 28°20' W 096°39'1 2.6
2018-Feb-15 16:00N 28°19' W 096°40'0 0.0
2018-Feb-15 15:30N 28°19' W 096°40'0 0.0
2018-Feb-15 14:41N 28°19' W 096°40'0 0.0
2018-Feb-15 14:27N 28°19' W 096°40'0 0.0
2018-Feb-15 13:55N 28°19' W 096°40'0 0.0
2018-Feb-15 13:30N 28°19' W 096°40'0 0.0
2018-Feb-15 12:59N 28°19' W 096°40'0 0.0
2018-Feb-15 12:30N 28°19' W 096°40'0 0.0
2018-Feb-15 12:00N 28°19' W 096°40'0 0.0
2018-Feb-15 11:26N 28°19' W 096°40'0 0.0
2018-Feb-15 10:47N 28°19' W 096°40'0 0.0
2018-Feb-15 10:30N 28°19' W 096°40'0 0.0
2018-Feb-15 09:42N 28°19' W 096°40'0 0.0
2018-Feb-15 09:23N 28°19' W 096°40'0 0.0
2018-Feb-15 08:59N 28°19' W 096°40'0 0.0
2018-Feb-15 08:28N 28°19' W 096°40'0 0.0
2018-Feb-15 07:58N 28°19' W 096°40'0 0.0
2018-Feb-15 07:29N 28°19' W 096°40'0 0.0
2018-Feb-15 06:59N 28°19' W 096°40'0 0.0
2018-Feb-15 06:21N 28°19' W 096°40'0 0.0
2018-Feb-15 05:59N 28°19' W 096°40'0 0.0
2018-Feb-15 05:30N 28°19' W 096°40'0 0.0
2018-Feb-15 05:00N 28°19' W 096°40'0 0.0
2018-Feb-15 00:56N 28°19' W 096°40'0 0.0
2018-Feb-15 00:16N 28°19' W 096°40'0 0.0
2018-Feb-14 23:56N 28°19' W 096°40'0 0.3
2018-Feb-14 22:34N 28°19' W 096°41'0 3.6
2018-Feb-14 22:26N 28°18' W 096°41'2 3.7
2018-Feb-14 21:59N 28°17' W 096°42'4 5.9
2018-Feb-14 21:17N 28°15' W 096°46'2 5.2
2018-Feb-14 20:56N 28°14' W 096°48'2 4.5
2018-Feb-14 20:25N 28°12' W 096°50'2 4.3
2018-Feb-14 19:59N 28°11' W 096°51'2 4.4
2018-Feb-14 19:29N 28°10' W 096°53'2 4.4
2018-Feb-14 18:59N 28°08' W 096°55'1 1.4
2018-Feb-14 18:29N 28°07' W 096°55'0 0.0
2018-Feb-14 17:59N 28°07' W 096°55'0 0.0
2018-Feb-14 17:30N 28°07' W 096°55'0 0.0
2018-Feb-14 16:59N 28°07' W 096°55'0 0.0
2018-Feb-14 16:29N 28°07' W 096°55'0 0.0
2018-Feb-14 15:59N 28°07' W 096°55'0 0.0
2018-Feb-14 15:30N 28°07' W 096°55'0 0.0
2018-Feb-14 15:00N 28°07' W 096°55'0 0.0
2018-Feb-14 14:30N 28°07' W 096°55'0 0.0
2018-Feb-14 14:00N 28°07' W 096°55'0 0.0
2018-Feb-14 13:31N 28°07' W 096°55'0 0.0
2018-Feb-14 13:00N 28°07' W 096°55'0 0.0
2018-Feb-14 11:20N 28°07' W 096°55'0 0.0
2018-Feb-14 10:58N 28°07' W 096°55'0 0.0
2018-Feb-14 10:29N 28°07' W 096°55'0 0.0
2018-Feb-14 10:00N 28°07' W 096°55'0 0.0
2018-Feb-14 09:30N 28°07' W 096°55'0 0.0
2018-Feb-14 08:59N 28°07' W 096°55'0 0.0
2018-Feb-14 08:30N 28°07' W 096°55'0 0.0
2018-Feb-14 08:00N 28°07' W 096°55'0 0.0
2018-Feb-14 07:29N 28°07' W 096°55'0 0.0
2018-Feb-14 06:59N 28°07' W 096°55'0 0.0
2018-Feb-14 06:30N 28°07' W 096°55'0 0.0
2018-Feb-14 06:00N 28°07' W 096°55'0 0.0
2018-Feb-14 05:30N 28°07' W 096°55'0 0.0
2018-Feb-14 04:59N 28°07' W 096°55'0 0.0
2018-Feb-14 04:29N 28°07' W 096°55'0 0.0
2018-Feb-14 04:00N 28°07' W 096°55'0 0.0
2018-Feb-14 03:30N 28°07' W 096°55'0 0.0
2018-Feb-14 02:59N 28°07' W 096°55'0 0.0
2018-Feb-14 02:30N 28°07' W 096°55'0 0.0
2018-Feb-14 01:59N 28°07' W 096°55'0 0.0
2018-Feb-14 01:29N 28°07' W 096°55'0 0.0
2018-Feb-14 01:00N 28°07' W 096°55'0 0.0
2018-Feb-14 00:30N 28°07' W 096°55'0 0.6
2018-Feb-14 00:00N 28°07' W 096°56'3 5.4
2018-Feb-13 23:29N 28°05' W 096°57'3 6.4
2018-Feb-13 22:59N 28°02' W 096°60'3 6.7
2018-Feb-13 22:30N 27°60' W 097°02'3 6.2
2018-Feb-13 21:58N 27°57' W 097°04'3 7.2
2018-Feb-13 21:29N 27°53' W 097°03'1 1.7
2018-Feb-13 21:00N 27°53' W 097°03'0 0.0
2018-Feb-13 20:30N 27°53' W 097°03'0 0.0
2018-Feb-13 19:59N 27°53' W 097°03'0 0.0
2018-Feb-13 19:30N 27°53' W 097°03'0 0.0
2018-Feb-13 19:00N 27°53' W 097°03'0 0.0
2018-Feb-13 18:29N 27°53' W 097°03'0 0.0
2018-Feb-13 17:59N 27°53' W 097°03'0 0.0
2018-Feb-13 17:29N 27°53' W 097°03'0 0.0
2018-Feb-13 17:00N 27°53' W 097°03'0 0.0
2018-Feb-13 16:30N 27°53' W 097°03'0 0.0
2018-Feb-13 15:59N 27°53' W 097°03'0 0.0
2018-Feb-13 15:29N 27°53' W 097°03'0 0.0
2018-Feb-13 14:59N 27°53' W 097°03'0 0.0
2018-Feb-13 14:29N 27°53' W 097°03'0 0.0
2018-Feb-13 14:00N 27°53' W 097°03'0 0.0
2018-Feb-13 13:30N 27°53' W 097°03'0 0.0
2018-Feb-13 13:00N 27°53' W 097°03'0 0.0
2018-Feb-13 12:29N 27°53' W 097°03'0 0.0
2018-Feb-13 11:59N 27°53' W 097°03'0 0.0
2018-Feb-13 11:30N 27°53' W 097°03'0 0.0
2018-Feb-13 11:00N 27°53' W 097°03'1 2.8
2018-Feb-13 10:30N 27°51' W 097°03'3 5.0
2018-Feb-13 09:59N 27°50' W 097°06'3 6.1
2018-Feb-13 09:29N 27°49' W 097°09'3 6.1
2018-Feb-13 09:00N 27°49' W 097°13'15 1.6
2018-Feb-12 23:17N 27°50' W 097°30'0 0.0
2018-Feb-12 22:52N 27°50' W 097°30'2 0.6
2018-Feb-12 18:50N 27°49' W 097°27'0 0.2
2018-Feb-12 17:17N 27°49' W 097°27'2 5.7
2018-Feb-12 16:51N 27°50' W 097°30'0 0.1
2018-Feb-12 16:30N 27°50' W 097°30'0 0.0
2018-Feb-12 15:34N 27°50' W 097°30'  
2018-Feb-08 16:00N 27°49' W 097°16'12 5.0
2018-Feb-08 13:30N 27°53' W 097°03'0 0.0
2018-Feb-08 10:00N 27°53' W 097°03'0 0.0
2018-Feb-08 04:00N 27°53' W 097°03'0 0.0
2018-Feb-08 01:29N 27°53' W 097°03'0 0.0
2018-Feb-08 01:00N 27°53' W 097°03'0 0.0
2018-Feb-08 00:30N 27°53' W 097°03'0 0.0
2018-Feb-08 00:00N 27°53' W 097°03'0 0.0
2018-Feb-07 23:28N 27°53' W 097°03'0 0.0
2018-Feb-07 22:59N 27°53' W 097°03'0 0.0
2018-Feb-07 22:29N 27°53' W 097°03'0 0.0
2018-Feb-07 22:00N 27°53' W 097°03'0 0.0
2018-Feb-07 21:29N 27°53' W 097°03'0 0.0
2018-Feb-07 09:29N 27°53' W 097°03'0 0.0
2018-Feb-07 08:36N 27°53' W 097°03'0 0.0
2018-Feb-07 08:29N 27°53' W 097°03'0 0.0
2018-Feb-07 08:00N 27°53' W 097°03'0 0.0
2018-Feb-07 07:30N 27°53' W 097°03'0 0.0
2018-Feb-07 07:00N 27°53' W 097°03'0 0.0
2018-Feb-07 06:28N 27°53' W 097°03'0 0.0
2018-Feb-07 05:41N 27°53' W 097°03'0 0.0
2018-Feb-07 05:27N 27°53' W 097°03'0 0.0
2018-Feb-07 04:58N 27°53' W 097°03'0 0.0
2018-Feb-07 04:24N 27°53' W 097°03'0 0.0
2018-Feb-07 03:59N 27°53' W 097°03'0 0.0
2018-Feb-07 03:08N 27°53' W 097°03'0 0.0
2018-Feb-07 02:47N 27°53' W 097°03'0 0.0
2018-Feb-07 02:30N 27°53' W 097°03'0 0.0
2018-Feb-07 01:44N 27°53' W 097°03'0 0.0
2018-Feb-07 01:22N 27°53' W 097°03'0 0.0
2018-Feb-07 00:53N 27°53' W 097°03'0 0.0
2018-Feb-07 00:10N 27°53' W 097°03'0 0.0
2018-Feb-06 23:57N 27°53' W 097°03'0 0.0
2018-Feb-06 23:24N 27°53' W 097°03'0 0.0
2018-Feb-06 22:52N 27°53' W 097°03'0 0.0
2018-Feb-06 22:19N 27°53' W 097°03'0 0.0
2018-Feb-06 21:58N 27°53' W 097°03'0 0.0
2018-Feb-06 21:10N 27°53' W 097°03'0 0.0
2018-Feb-06 20:59N 27°53' W 097°03'0 0.0
2018-Feb-06 20:29N 27°53' W 097°03'0 0.0
2018-Feb-06 20:00N 27°53' W 097°03'0 0.0
2018-Feb-06 19:21N 27°53' W 097°03'0 0.0
2018-Feb-06 18:27N 27°53' W 097°03'0 0.0
2018-Feb-06 17:59N 27°53' W 097°03'0 0.0
2018-Feb-06 17:30N 27°53' W 097°03'0 0.0
2018-Feb-06 17:00N 27°53' W 097°03'0 0.0
2018-Feb-06 16:28N 27°53' W 097°03'0 0.0
2018-Feb-06 15:50N 27°53' W 097°03'0 0.0
2018-Feb-06 15:30N 27°53' W 097°03'0 0.0
2018-Feb-06 14:59N 27°53' W 097°03'0 0.0
2018-Feb-06 14:30N 27°53' W 097°03'0 0.0
2018-Feb-06 14:00N 27°53' W 097°03'0 0.0
2018-Feb-06 13:27N 27°53' W 097°03'0 0.0
2018-Feb-06 12:58N 27°53' W 097°03'0 0.0
2018-Feb-06 12:30N 27°53' W 097°03'0 0.0
2018-Feb-06 12:00N 27°53' W 097°03'0 0.0
2018-Feb-06 11:25N 27°53' W 097°03'0 0.0
2018-Feb-06 10:59N 27°53' W 097°03'0 0.0
2018-Feb-06 10:29N 27°53' W 097°03'0 0.0
2018-Feb-06 10:00N 27°53' W 097°03'0 0.0
2018-Feb-06 09:29N 27°53' W 097°03'0 0.0
2018-Feb-06 08:57N 27°53' W 097°03'0 0.0
2018-Feb-06 08:29N 27°53' W 097°03'0 0.0
2018-Feb-06 07:30N 27°53' W 097°03'0 0.0
2018-Feb-06 07:00N 27°53' W 097°03'0 0.0
2018-Feb-06 06:29N 27°53' W 097°03'  

Dump ship's entire track history